sensor_id;sensor_type;location;lat;lon;timestamp;pressure;altitude;pressure_sealevel;temperature;humidity
15193;BME280;7697;51.630;7.484;2023-01-15T00:02:05;99161.06;;;8.95;100.00
15193;BME280;7697;51.630;7.484;2023-01-15T00:07:22;99176.91;;;8.65;100.00
15193;BME280;7697;51.630;7.484;2023-01-15T00:12:40;99172.66;;;8.46;100.00
15193;BME280;7697;51.630;7.484;2023-01-15T00:24:01;99197.41;;;8.02;100.00
15193;BME280;7697;51.630;7.484;2023-01-15T00:29:22;99193.88;;;7.89;100.00
15193;BME280;7697;51.630;7.484;2023-01-15T00:34:39;99199.00;;;7.84;100.00
15193;BME280;7697;51.630;7.484;2023-01-15T00:40:13;99195.16;;;7.80;100.00
15193;BME280;7697;51.630;7.484;2023-01-15T00:45:30;99188.50;;;7.78;100.00
15193;BME280;7697;51.630;7.484;2023-01-15T00:50:48;99181.84;;;7.75;100.00
15193;BME280;7697;51.630;7.484;2023-01-15T04:12:47;99112.59;;;7.68;98.95
15193;BME280;7697;51.630;7.484;2023-01-15T04:18:32;99127.59;;;7.68;99.25
15193;BME280;7697;51.630;7.484;2023-01-15T04:23:52;99125.38;;;7.65;98.07
15193;BME280;7697;51.630;7.484;2023-01-15T05:50:16;99145.91;;;7.56;97.98
15193;BME280;7697;51.630;7.484;2023-01-15T05:55:18;99131.13;;;7.55;98.31
15193;BME280;7697;51.630;7.484;2023-01-15T06:00:21;99142.63;;;7.61;98.20
15193;BME280;7697;51.630;7.484;2023-01-15T06:05:24;99142.06;;;7.59;97.48
15193;BME280;7697;51.630;7.484;2023-01-15T06:10:26;99160.28;;;7.60;97.86
15193;BME280;7697;51.630;7.484;2023-01-15T06:15:27;99146.31;;;7.60;97.88
15193;BME280;7697;51.630;7.484;2023-01-15T06:20:30;99152.13;;;7.62;98.26
15193;BME280;7697;51.630;7.484;2023-01-15T06:25:32;99157.19;;;7.63;98.03
15193;BME280;7697;51.630;7.484;2023-01-15T06:30:37;99153.16;;;7.61;97.61
15193;BME280;7697;51.630;7.484;2023-01-15T06:35:40;99156.84;;;7.60;97.50
15193;BME280;7697;51.630;7.484;2023-01-15T06:40:42;99156.38;;;7.63;96.92
15193;BME280;7697;51.630;7.484;2023-01-15T06:45:43;99169.34;;;7.64;96.89
15193;BME280;7697;51.630;7.484;2023-01-15T06:51:04;99150.69;;;7.66;96.41
15193;BME280;7697;51.630;7.484;2023-01-15T06:56:06;99156.38;;;7.63;95.68
15193;BME280;7697;51.630;7.484;2023-01-15T07:01:09;99162.25;;;7.65;95.36
15193;BME280;7697;51.630;7.484;2023-01-15T07:06:12;99172.59;;;7.66;95.14
15193;BME280;7697;51.630;7.484;2023-01-15T07:11:14;99162.25;;;7.65;95.46
15193;BME280;7697;51.630;7.484;2023-01-15T07:16:16;99172.16;;;7.69;95.62
15193;BME280;7697;51.630;7.484;2023-01-15T07:21:29;99174.34;;;7.72;95.87
15193;BME280;7697;51.630;7.484;2023-01-15T07:26:31;99171.56;;;7.42;94.41
15193;BME280;7697;51.630;7.484;2023-01-15T07:31:33;99162.03;;;7.10;94.83
15193;BME280;7697;51.630;7.484;2023-01-15T07:36:36;99165.19;;;6.87;95.18
15193;BME280;7697;51.630;7.484;2023-01-15T07:41:38;99147.59;;;6.88;96.06
15193;BME280;7697;51.630;7.484;2023-01-15T07:46:58;99134.03;;;6.84;95.99
15193;BME280;7697;51.630;7.484;2023-01-15T07:52:19;99161.94;;;6.92;96.75
15193;BME280;7697;51.630;7.484;2023-01-15T07:57:21;99188.34;;;7.10;97.51
15193;BME280;7697;51.630;7.484;2023-01-15T08:02:23;99196.34;;;7.28;96.91
15193;BME280;7697;51.630;7.484;2023-01-15T08:07:26;99194.06;;;7.38;97.06
15193;BME280;7697;51.630;7.484;2023-01-15T08:12:28;99199.94;;;7.40;96.42
15193;BME280;7697;51.630;7.484;2023-01-15T08:17:48;99208.44;;;7.42;96.38
15193;BME280;7697;51.630;7.484;2023-01-15T08:22:52;99205.53;;;7.50;95.08
15193;BME280;7697;51.630;7.484;2023-01-15T08:27:53;99210.19;;;7.48;96.07
15193;BME280;7697;51.630;7.484;2023-01-15T08:32:58;99221.91;;;7.52;95.16
15193;BME280;7697;51.630;7.484;2023-01-15T08:38:04;99217.69;;;7.51;94.66
15193;BME280;7697;51.630;7.484;2023-01-15T08:43:06;99216.00;;;7.57;95.10
15193;BME280;7697;51.630;7.484;2023-01-15T08:48:08;99230.19;;;7.56;94.42
15193;BME280;7697;51.630;7.484;2023-01-15T08:53:11;99227.38;;;7.58;93.97
15193;BME280;7697;51.630;7.484;2023-01-15T08:58:13;99249.63;;;7.62;94.18
15193;BME280;7697;51.630;7.484;2023-01-15T09:03:15;99245.34;;;7.61;93.36
15193;BME280;7697;51.630;7.484;2023-01-15T09:08:18;99243.78;;;7.60;92.40
15193;BME280;7697;51.630;7.484;2023-01-15T09:13:22;99237.25;;;7.62;92.76
15193;BME280;7697;51.630;7.484;2023-01-15T09:18:23;99250.22;;;7.64;91.42
15193;BME280;7697;51.630;7.484;2023-01-15T09:23:26;99248.38;;;7.64;90.28
15193;BME280;7697;51.630;7.484;2023-01-15T09:28:28;99254.88;;;7.62;88.82
15193;BME280;7697;51.630;7.484;2023-01-15T09:33:30;99237.91;;;7.58;89.20
15193;BME280;7697;51.630;7.484;2023-01-15T09:38:33;99250.06;;;7.52;89.17
15193;BME280;7697;51.630;7.484;2023-01-15T09:43:44;99256.09;;;7.66;88.03
15193;BME280;7697;51.630;7.484;2023-01-15T09:48:56;99254.19;;;7.73;87.63
15193;BME280;7697;51.630;7.484;2023-01-15T09:54:20;99243.13;;;7.89;86.63
15193;BME280;7697;51.630;7.484;2023-01-15T09:59:32;99242.59;;;8.05;86.26
15193;BME280;7697;51.630;7.484;2023-01-15T10:04:40;99235.28;;;8.07;85.26
15193;BME280;7697;51.630;7.484;2023-01-15T10:09:46;99232.31;;;7.97;84.40
15193;BME280;7697;51.630;7.484;2023-01-15T10:14:58;99250.25;;;8.13;85.47
15193;BME280;7697;51.630;7.484;2023-01-15T10:20:01;99246.81;;;8.13;85.94
15193;BME280;7697;51.630;7.484;2023-01-15T10:25:10;99263.66;;;8.12;85.27
15193;BME280;7697;51.630;7.484;2023-01-15T10:30:16;99255.34;;;8.08;85.41
15193;BME280;7697;51.630;7.484;2023-01-15T10:35:35;99257.38;;;8.06;85.82
15193;BME280;7697;51.630;7.484;2023-01-15T10:40:58;99255.75;;;8.12;84.97
15193;BME280;7697;51.630;7.484;2023-01-15T10:46:11;99248.91;;;8.04;84.84
15193;BME280;7697;51.630;7.484;2023-01-15T10:51:17;99262.09;;;8.04;84.71
15193;BME280;7697;51.630;7.484;2023-01-15T10:56:29;99253.75;;;8.32;84.77
15193;BME280;7697;51.630;7.484;2023-01-15T11:01:33;99244.63;;;8.53;84.09
15193;BME280;7697;51.630;7.484;2023-01-15T11:06:35;99253.34;;;8.53;82.13
15193;BME280;7697;51.630;7.484;2023-01-15T11:11:42;99251.38;;;8.49;82.33
15193;BME280;7697;51.630;7.484;2023-01-15T11:17:02;99262.94;;;8.48;82.77
15193;BME280;7697;51.630;7.484;2023-01-15T11:22:21;99268.16;;;8.54;81.31
15193;BME280;7697;51.630;7.484;2023-01-15T11:27:26;99248.88;;;8.54;81.91
15193;BME280;7697;51.630;7.484;2023-01-15T11:32:30;99265.44;;;8.61;80.72
15193;BME280;7697;51.630;7.484;2023-01-15T11:37:33;99252.63;;;8.64;80.59
15193;BME280;7697;51.630;7.484;2023-01-15T11:42:37;99260.09;;;8.68;80.85
15193;BME280;7697;51.630;7.484;2023-01-15T11:47:56;99253.56;;;8.70;80.46
15193;BME280;7697;51.630;7.484;2023-01-15T11:53:18;99253.94;;;8.74;79.24
15193;BME280;7697;51.630;7.484;2023-01-15T11:58:22;99231.84;;;8.68;79.32
15193;BME280;7697;51.630;7.484;2023-01-15T12:03:26;99230.84;;;8.69;79.08
15193;BME280;7697;51.630;7.484;2023-01-15T12:08:38;99233.63;;;8.74;79.36
15193;BME280;7697;51.630;7.484;2023-01-15T12:13:50;99230.78;;;8.76;78.13
15193;BME280;7697;51.630;7.484;2023-01-15T12:18:57;99237.72;;;8.70;79.52
15193;BME280;7697;51.630;7.484;2023-01-15T12:24:13;99234.28;;;8.70;80.31
15193;BME280;7697;51.630;7.484;2023-01-15T12:29:25;99231.44;;;8.71;78.54
15193;BME280;7697;51.630;7.484;2023-01-15T12:34:35;99226.75;;;8.73;78.73
15193;BME280;7697;51.630;7.484;2023-01-15T12:39:45;99245.34;;;8.78;79.49
15193;BME280;7697;51.630;7.484;2023-01-15T12:44:51;99234.78;;;8.78;79.43
15193;BME280;7697;51.630;7.484;2023-01-15T12:50:10;99241.38;;;8.69;79.57
15193;BME280;7697;51.630;7.484;2023-01-15T12:55:18;99222.19;;;8.62;79.13
15193;BME280;7697;51.630;7.484;2023-01-15T13:00:25;99227.69;;;8.79;79.37
15193;BME280;7697;51.630;7.484;2023-01-15T13:05:30;99209.78;;;8.99;79.38
15193;BME280;7697;51.630;7.484;2023-01-15T13:10:33;99211.66;;;9.10;79.12
15193;BME280;7697;51.630;7.484;2023-01-15T13:15:39;99226.56;;;9.04;77.46
15193;BME280;7697;51.630;7.484;2023-01-15T13:20:46;99228.19;;;8.87;77.85
15193;BME280;7697;51.630;7.484;2023-01-15T13:26:11;99223.09;;;8.74;79.31
15193;BME280;7697;51.630;7.484;2023-01-15T13:31:37;99233.25;;;8.71;79.93
15193;BME280;7697;51.630;7.484;2023-01-15T13:36:43;99242.94;;;8.58;80.59
15193;BME280;7697;51.630;7.484;2023-01-15T13:41:48;99249.59;;;8.61;79.72
15193;BME280;7697;51.630;7.484;2023-01-15T13:47:11;99245.63;;;8.52;80.93
15193;BME280;7697;51.630;7.484;2023-01-15T13:52:21;99252.69;;;8.58;79.86
15193;BME280;7697;51.630;7.484;2023-01-15T13:57:31;99229.31;;;8.61;79.86
15193;BME280;7697;51.630;7.484;2023-01-15T14:02:36;99240.22;;;8.65;80.30
15193;BME280;7697;51.630;7.484;2023-01-15T14:07:40;99230.84;;;8.69;80.13
15193;BME280;7697;51.630;7.484;2023-01-15T14:12:50;99234.97;;;8.65;80.05
15193;BME280;7697;51.630;7.484;2023-01-15T14:18:07;99244.91;;;8.63;80.27
15193;BME280;7697;51.630;7.484;2023-01-15T14:23:23;99251.66;;;8.59;80.09
15193;BME280;7697;51.630;7.484;2023-01-15T14:28:41;99254.16;;;8.54;79.57
15193;BME280;7697;51.630;7.484;2023-01-15T14:33:56;99267.88;;;8.62;79.56
15193;BME280;7697;51.630;7.484;2023-01-15T14:39:21;99276.50;;;8.70;79.47
15193;BME280;7697;51.630;7.484;2023-01-15T14:44:26;99282.47;;;8.65;79.21
15193;BME280;7697;51.630;7.484;2023-01-15T14:49:42;99288.59;;;8.59;78.33
15193;BME280;7697;51.630;7.484;2023-01-15T14:54:48;99289.47;;;8.53;79.72
15193;BME280;7697;51.630;7.484;2023-01-15T14:59:54;99289.19;;;8.61;79.74
15193;BME280;7697;51.630;7.484;2023-01-15T15:04:59;99274.44;;;8.53;79.32
15193;BME280;7697;51.630;7.484;2023-01-15T15:10:04;99304.66;;;8.57;79.04
15193;BME280;7697;51.630;7.484;2023-01-15T15:15:11;99299.06;;;8.47;79.13
15193;BME280;7697;51.630;7.484;2023-01-15T15:20:22;99307.34;;;8.51;79.18
15193;BME280;7697;51.630;7.484;2023-01-15T15:25:32;99294.59;;;8.48;79.69
15193;BME280;7697;51.630;7.484;2023-01-15T15:30:40;99303.38;;;8.42;79.21
15193;BME280;7697;51.630;7.484;2023-01-15T15:35:47;99304.63;;;8.39;79.37
15193;BME280;7697;51.630;7.484;2023-01-15T15:40:52;99315.31;;;8.44;78.95
15193;BME280;7697;51.630;7.484;2023-01-15T15:45:56;99302.63;;;8.35;79.23
15193;BME280;7697;51.630;7.484;2023-01-15T15:51:30;99314.59;;;8.37;79.85
15193;BME280;7697;51.630;7.484;2023-01-15T15:56:32;99316.63;;;8.35;78.84
15193;BME280;7697;51.630;7.484;2023-01-15T16:01:38;99308.75;;;8.28;78.65
15193;BME280;7697;51.630;7.484;2023-01-15T16:06:41;99300.66;;;8.23;79.94
15193;BME280;7697;51.630;7.484;2023-01-15T16:11:43;99294.81;;;8.21;79.56
15193;BME280;7697;51.630;7.484;2023-01-15T16:16:45;99307.00;;;8.16;78.92
15193;BME280;7697;51.630;7.484;2023-01-15T16:21:50;99296.66;;;8.14;79.18
15193;BME280;7697;51.630;7.484;2023-01-15T16:26:59;99326.88;;;8.18;79.02
15193;BME280;7697;51.630;7.484;2023-01-15T16:32:09;99310.91;;;8.13;80.57
15193;BME280;7697;51.630;7.484;2023-01-15T16:37:23;99321.66;;;8.12;79.63
15193;BME280;7697;51.630;7.484;2023-01-15T16:42:29;99318.16;;;8.18;79.85
15193;BME280;7697;51.630;7.484;2023-01-15T16:47:35;99321.75;;;8.23;79.51
15193;BME280;7697;51.630;7.484;2023-01-15T16:52:49;99323.81;;;8.21;79.84
15193;BME280;7697;51.630;7.484;2023-01-15T16:58:13;99349.75;;;8.24;80.02
15193;BME280;7697;51.630;7.484;2023-01-15T17:03:17;99343.91;;;8.22;80.93
15193;BME280;7697;51.630;7.484;2023-01-15T17:08:22;99339.44;;;8.23;80.95
15193;BME280;7697;51.630;7.484;2023-01-15T17:13:30;99337.97;;;8.27;79.97
15193;BME280;7697;51.630;7.484;2023-01-15T17:18:33;99344.09;;;8.21;81.23
15193;BME280;7697;51.630;7.484;2023-01-15T17:23:39;99343.28;;;8.20;81.14
15193;BME280;7697;51.630;7.484;2023-01-15T17:28:42;99343.13;;;8.15;81.37
15193;BME280;7697;51.630;7.484;2023-01-15T17:34:23;99332.56;;;8.15;81.39
15193;BME280;7697;51.630;7.484;2023-01-15T17:39:26;99345.75;;;8.15;81.90
15193;BME280;7697;51.630;7.484;2023-01-15T17:44:27;99355.66;;;8.20;81.79
15193;BME280;7697;51.630;7.484;2023-01-15T17:49:30;99353.44;;;8.17;81.92
15193;BME280;7697;51.630;7.484;2023-01-15T17:54:32;99357.09;;;8.22;80.83
15193;BME280;7697;51.630;7.484;2023-01-15T17:59:51;99358.31;;;8.20;81.31
15193;BME280;7697;51.630;7.484;2023-01-15T18:05:12;99355.06;;;8.18;82.56
15193;BME280;7697;51.630;7.484;2023-01-15T18:10:26;99359.94;;;8.14;82.01
15193;BME280;7697;51.630;7.484;2023-01-15T18:15:29;99353.44;;;8.17;81.64
15193;BME280;7697;51.630;7.484;2023-01-15T18:20:31;99360.94;;;8.20;81.67
15193;BME280;7697;51.630;7.484;2023-01-15T18:25:33;99359.94;;;8.21;81.40
15193;BME280;7697;51.630;7.484;2023-01-15T18:30:35;99355.47;;;8.15;81.46
15193;BME280;7697;51.630;7.484;2023-01-15T18:35:38;99366.44;;;8.18;81.45
15193;BME280;7697;51.630;7.484;2023-01-15T18:40:43;99362.16;;;8.17;81.38
15193;BME280;7697;51.630;7.484;2023-01-15T18:45:45;99351.19;;;8.20;81.56
15193;BME280;7697;51.630;7.484;2023-01-15T18:51:09;99362.38;;;8.16;81.71
15193;BME280;7697;51.630;7.484;2023-01-15T18:56:10;99370.50;;;8.14;82.21
15193;BME280;7697;51.630;7.484;2023-01-15T19:01:32;99367.28;;;8.12;82.41
15193;BME280;7697;51.630;7.484;2023-01-15T19:06:35;99377.84;;;8.12;82.48
15193;BME280;7697;51.630;7.484;2023-01-15T19:11:38;99373.41;;;8.06;82.55
15193;BME280;7697;51.630;7.484;2023-01-15T19:16:40;99364.91;;;8.04;83.42
15193;BME280;7697;51.630;7.484;2023-01-15T19:22:01;99373.41;;;8.06;83.09
15193;BME280;7697;51.630;7.484;2023-01-15T19:27:31;99380.50;;;8.06;83.68
15193;BME280;7697;51.630;7.484;2023-01-15T19:32:33;99380.28;;;8.07;83.29
15193;BME280;7697;51.630;7.484;2023-01-15T19:37:36;99373.06;;;7.96;84.28
15193;BME280;7697;51.630;7.484;2023-01-15T19:42:39;99364.16;;;7.90;84.56
15193;BME280;7697;51.630;7.484;2023-01-15T19:47:58;99367.22;;;7.87;84.52
15193;BME280;7697;51.630;7.484;2023-01-15T19:53:20;99369.66;;;7.89;85.71
15193;BME280;7697;51.630;7.484;2023-01-15T19:58:22;99363.81;;;7.87;85.46
15193;BME280;7697;51.630;7.484;2023-01-15T20:03:23;99360.94;;;7.88;85.19
15193;BME280;7697;51.630;7.484;2023-01-15T20:08:27;99356.09;;;7.85;84.86
15193;BME280;7697;51.630;7.484;2023-01-15T20:13:31;99350.03;;;7.85;84.74
15193;BME280;7697;51.630;7.484;2023-01-15T20:18:53;99331.97;;;7.82;84.79
15193;BME280;7697;51.630;7.484;2023-01-15T20:23:56;99329.34;;;7.82;85.00
15193;BME280;7697;51.630;7.484;2023-01-15T20:28:58;99319.47;;;7.77;84.99
15193;BME280;7697;51.630;7.484;2023-01-15T20:34:00;99319.22;;;7.79;84.81
15193;BME280;7697;51.630;7.484;2023-01-15T20:39:03;99303.66;;;7.77;84.86
15193;BME280;7697;51.630;7.484;2023-01-15T20:44:05;99294.34;;;7.75;84.83
15193;BME280;7697;51.630;7.484;2023-01-15T20:49:24;99283.13;;;7.79;84.76
15193;BME280;7697;51.630;7.484;2023-01-15T20:54:28;99276.03;;;7.80;84.42
15193;BME280;7697;51.630;7.484;2023-01-15T20:59:30;99275.03;;;7.81;84.29
15193;BME280;7697;51.630;7.484;2023-01-15T21:04:32;99276.03;;;7.86;83.38
15193;BME280;7697;51.630;7.484;2023-01-15T21:09:35;99265.28;;;7.81;83.30
15193;BME280;7697;51.630;7.484;2023-01-15T21:14:36;99260.03;;;7.81;83.15
15193;BME280;7697;51.630;7.484;2023-01-15T21:19:38;99251.91;;;7.83;82.04
15193;BME280;7697;51.630;7.484;2023-01-15T21:24:41;99249.88;;;7.85;83.09
15193;BME280;7697;51.630;7.484;2023-01-15T21:29:43;99245.22;;;7.80;83.26
15193;BME280;7697;51.630;7.484;2023-01-15T21:34:47;99233.31;;;7.78;83.00
15193;BME280;7697;51.630;7.484;2023-01-15T21:39:50;99226.84;;;7.74;83.06
15193;BME280;7697;51.630;7.484;2023-01-15T21:44:52;99221.97;;;7.71;83.31
15193;BME280;7697;51.630;7.484;2023-01-15T21:49:53;99211.50;;;7.64;83.40
15193;BME280;7697;51.630;7.484;2023-01-15T21:54:56;99197.38;;;7.59;82.83
15193;BME280;7697;51.630;7.484;2023-01-15T21:59:58;99206.34;;;7.51;84.25
15193;BME280;7697;51.630;7.484;2023-01-15T22:05:00;99187.94;;;7.44;83.17
15193;BME280;7697;51.630;7.484;2023-01-15T22:10:04;99189.34;;;7.47;84.64
15193;BME280;7697;51.630;7.484;2023-01-15T22:15:07;99171.56;;;7.42;85.09
15193;BME280;7697;51.630;7.484;2023-01-15T22:20:10;99175.22;;;7.41;85.46
15193;BME280;7697;51.630;7.484;2023-01-15T22:25:13;99167.72;;;7.38;86.59
15193;BME280;7697;51.630;7.484;2023-01-15T22:30:15;99174.81;;;7.38;86.38
15193;BME280;7697;51.630;7.484;2023-01-15T22:35:17;99149.72;;;7.35;86.87
15193;BME280;7697;51.630;7.484;2023-01-15T22:40:20;99161.03;;;7.36;86.40
15193;BME280;7697;51.630;7.484;2023-01-15T22:45:22;99161.50;;;7.26;87.91
15193;BME280;7697;51.630;7.484;2023-01-15T22:50:24;99143.94;;;7.20;89.47
15193;BME280;7697;51.630;7.484;2023-01-15T22:55:27;99126.84;;;7.04;89.25
15193;BME280;7697;51.630;7.484;2023-01-15T23:00:29;99112.53;;;6.94;90.53
15193;BME280;7697;51.630;7.484;2023-01-15T23:05:35;99104.28;;;6.84;91.11
15193;BME280;7697;51.630;7.484;2023-01-15T23:10:41;99099.88;;;6.77;91.89
15193;BME280;7697;51.630;7.484;2023-01-15T23:15:43;99089.41;;;6.71;91.58
15193;BME280;7697;51.630;7.484;2023-01-15T23:20:45;99080.50;;;6.65;92.55
15193;BME280;7697;51.630;7.484;2023-01-15T23:25:48;99074.50;;;6.58;92.78
15193;BME280;7697;51.630;7.484;2023-01-15T23:30:50;99073.28;;;6.61;92.93
15193;BME280;7697;51.630;7.484;2023-01-15T23:35:52;99060.75;;;6.56;93.59
15193;BME280;7697;51.630;7.484;2023-01-15T23:40:55;99057.31;;;6.56;92.28
15193;BME280;7697;51.630;7.484;2023-01-15T23:45:57;99044.53;;;6.59;93.58
15193;BME280;7697;51.630;7.484;2023-01-15T23:51:17;99032.22;;;6.60;93.46
15193;BME280;7697;51.630;7.484;2023-01-15T23:56:20;99033.81;;;6.61;92.96
